Time;durP1;ratioP1;P1;durP2;ratioP2;P2;SDS_P1;SDS_P2;PMS_P1;PMS_P2;Temp;Humidity;BMP_temperature;BMP_pressure;BME280_temperature;BME280_humidity;BME280_pressure;Samples;Min_cycle;Max_cycle;Signal;HPM_P1;HPM_P2
2022/12/29 00:01:35;;;;;;;2.72;1.58;;;;;;;9.92;100.00;100031.59;5052077;28;20029;-50
2022/12/29 00:04:01;;;;;;;3.25;1.75;;;;;;;9.92;100.00;100031.59;5051504;28;20025;-50
2022/12/29 00:06:27;;;;;;;2.00;1.40;;;;;;;9.89;100.00;100030.06;5051459;28;20364;-50
2022/12/29 00:08:53;;;;;;;1.00;0.90;;;;;;;9.88;100.00;100028.38;5051559;28;20040;-50
2022/12/29 00:11:21;;;;;;;1.85;1.15;;;;;;;9.85;100.00;100022.50;5050965;28;20036;-51
2022/12/29 00:16:31;;;;;;;1.50;0.80;;;;;;;9.80;100.00;100007.81;5045148;28;20055;-50
2022/12/29 00:18:58;;;;;;;1.27;1.10;;;;;;;9.75;100.00;100007.38;5038336;28;20025;-50
2022/12/29 00:35:28;;;;;;;1.17;0.82;;;;;;;9.45;100.00;99995.78;5049431;28;20041;-50
2022/12/29 00:46:08;;;;;;;2.45;1.27;;;;;;;9.34;100.00;99981.78;5054930;28;20083;-52
2022/12/29 00:51:17;;;;;;;3.03;2.05;;;;;;;9.31;100.00;99974.94;5053993;28;20116;-50
2022/12/29 00:53:42;;;;;;;2.53;2.10;;;;;;;9.30;100.00;99973.25;5055262;28;20469;-49
2022/12/29 00:56:07;;;;;;;3.38;1.90;;;;;;;9.30;100.00;99973.25;5053225;28;20041;-50
2022/12/29 00:58:33;;;;;;;5.10;2.15;;;;;;;9.30;100.00;99972.44;5055219;28;20025;-50
2022/12/29 01:01:08;;;;;;;2.58;2.38;;;;;;;9.31;100.00;99971.44;5054517;28;20526;-49
2022/12/29 01:03:35;;;;;;;2.50;2.13;;;;;;;9.31;100.00;99952.88;5054908;28;20135;-49
2022/12/29 01:06:01;;;;;;;2.72;2.25;;;;;;;9.32;100.00;99955.41;5052362;28;20076;-49
2022/12/29 01:08:28;;;;;;;3.22;2.42;;;;;;;9.32;100.00;99944.81;5053945;28;20037;-49
2022/12/29 01:11:04;;;;;;;2.40;2.30;;;;;;;9.35;100.00;99941.91;5054807;28;20032;-49
2022/12/29 01:13:30;;;;;;;2.20;2.00;;;;;;;9.37;100.00;99936.47;5054137;28;20036;-51
2022/12/29 01:15:56;;;;;;;2.65;2.10;;;;;;;9.39;100.00;99945.13;5054135;28;20049;-50
2022/12/29 01:18:23;;;;;;;5.28;2.65;;;;;;;9.40;100.00;99941.50;5039774;28;20029;-50
2022/12/29 01:20:48;;;;;;;2.08;1.83;;;;;;;9.43;100.00;99926.19;5054937;28;20025;-49
2022/12/29 01:23:14;;;;;;;2.88;2.00;;;;;;;9.46;100.00;99933.03;5053797;28;20025;-49
2022/12/29 01:25:39;;;;;;;2.60;1.70;;;;;;;9.48;100.00;99932.91;5054189;28;20025;-49
2022/12/29 01:28:06;;;;;;;4.43;1.85;;;;;;;9.50;100.00;99929.13;5054284;28;20163;-50
2022/12/29 01:30:32;;;;;;;2.42;1.65;;;;;;;9.54;100.00;99924.41;5054618;28;20021;-50
2022/12/29 01:32:57;;;;;;;1.58;1.48;;;;;;;9.58;100.00;99931.13;5053798;28;20037;-50
2022/12/29 01:35:22;;;;;;;2.72;1.67;;;;;;;9.59;100.00;99927.50;5053928;28;20360;-49
2022/12/29 01:37:48;;;;;;;2.92;1.45;;;;;;;9.60;100.00;99922.06;5052699;28;20148;-50
2022/12/29 01:40:13;;;;;;;3.22;1.60;;;;;;;9.59;100.00;99920.41;5053538;28;20391;-50
2022/12/29 01:42:38;;;;;;;3.10;1.38;;;;;;;9.62;100.00;99922.75;5054285;28;20033;-49
2022/12/29 01:45:15;;;;;;;1.45;1.35;;;;;;;9.63;100.00;99921.78;5054095;28;20029;-49
2022/12/29 01:47:47;;;;;;;3.50;1.48;;;;;;;9.66;100.00;99931.31;5054114;28;20075;-50
2022/12/29 01:50:30;;;;;;;4.03;1.58;;;;;;;9.72;100.00;99936.03;5053584;28;20095;-50
2022/12/29 01:53:08;;;;;;;4.85;1.48;;;;;;;9.74;100.00;99925.31;5052816;28;20032;-49
2022/12/29 01:55:40;;;;;;;3.65;1.33;;;;;;;9.75;100.00;99933.13;5049820;28;20051;-50
2022/12/29 01:58:06;;;;;;;2.60;1.38;;;;;;;9.77;100.00;99919.75;5052864;28;20044;-50
2022/12/29 02:00:32;;;;;;;3.00;1.50;;;;;;;9.76;100.00;99934.81;5054092;28;20029;-50
2022/12/29 02:02:57;;;;;;;2.35;1.60;;;;;;;9.77;100.00;99920.56;5054140;28;20024;-49
2022/12/29 02:05:33;;;;;;;3.42;1.30;;;;;;;9.78;100.00;99924.09;5053322;28;20382;-49
2022/12/29 02:08:00;;;;;;;4.93;1.23;;;;;;;9.79;100.00;99923.94;5045282;28;20039;-49
2022/12/29 02:10:28;;;;;;;2.75;1.20;;;;;;;9.87;100.00;99927.72;5053192;28;20036;-49
2022/12/29 02:12:53;;;;;;;2.22;1.15;;;;;;;9.89;100.00;99941.69;5053782;28;20479;-49
2022/12/29 02:15:32;;;;;;;4.55;1.35;;;;;;;9.92;100.00;99923.69;5053119;28;20043;-51
2022/12/29 02:18:50;;;;;;;2.95;1.55;;;;;;;9.95;100.00;99923.41;5051131;28;20079;-49
2022/12/29 02:21:40;;;;;;;3.45;1.35;;;;;;;9.98;100.00;99923.16;5019302;28;20041;-50
2022/12/29 02:24:47;;;;;;;1.55;1.00;;;;;;;10.00;100.00;99905.28;5032924;28;20032;-50
2022/12/29 02:27:27;;;;;;;4.18;1.10;;;;;;;10.07;100.00;99905.56;5068714;28;20017;-49
2022/12/29 02:30:04;;;;;;;6.53;1.23;;;;;;;10.03;100.00;99903.34;5053984;28;20445;-50
2022/12/29 02:32:54;;;;;;;4.25;1.15;;;;;;;10.03;100.00;99893.56;5051814;28;20040;-49
2022/12/29 02:35:41;;;;;;;4.00;1.40;;;;;;;10.02;100.00;99899.00;5053099;28;20021;-50
2022/12/29 02:38:34;;;;;;;2.28;1.25;;;;;;;10.03;100.00;99898.88;5051715;28;20498;-50
2022/12/29 02:41:15;;;;;;;2.58;1.17;;;;;;;10.00;100.00;99907.09;5037793;28;20029;-49
2022/12/29 02:43:54;;;;;;;2.88;1.30;;;;;;;10.02;100.00;99891.03;5050267;28;20025;-50
2022/12/29 02:46:32;;;;;;;6.07;1.70;;;;;;;9.97;100.00;99907.38;5051832;28;20037;-49
2022/12/29 02:49:14;;;;;;;2.25;1.20;;;;;;;9.95;100.00;99904.00;5053322;28;20025;-49
2022/12/29 02:51:54;;;;;;;3.85;1.52;;;;;;;9.91;100.00;99899.94;5051838;28;20025;-48
2022/12/29 02:57:10;;;;;;;4.00;1.20;;;;;;;9.90;100.00;99893.81;5052771;28;20048;-49
2022/12/29 02:59:36;;;;;;;4.20;1.33;;;;;;;9.88;100.00;99886.97;5052198;28;20037;-50
2022/12/29 03:02:24;;;;;;;4.07;1.38;;;;;;;9.85;100.00;99884.59;5052466;28;20025;-49
2022/12/29 03:05:19;;;;;;;4.53;1.23;;;;;;;9.87;100.00;99880.00;5043013;28;20033;-50
2022/12/29 03:08:03;;;;;;;3.65;1.10;;;;;;;9.87;100.00;99885.28;5049559;28;20025;-49
2022/12/29 03:10:38;;;;;;;2.15;1.63;;;;;;;9.84;100.00;99889.03;5051940;28;20036;-50
2022/12/29 03:16:45;;;;;;;3.05;1.23;;;;;;;9.88;100.00;99889.63;5052789;28;20055;-49
2022/12/29 03:19:23;;;;;;;2.65;1.10;;;;;;;9.81;100.00;99882.22;5049540;28;20033;-49
2022/12/29 03:24:41;;;;;;;2.85;1.25;;;;;;;9.80;100.00;99879.69;5051398;28;20427;-49
2022/12/29 03:27:11;;;;;;;3.40;1.27;;;;;;;9.77;100.00;99886.09;5052151;28;20052;-49
2022/12/29 03:29:39;;;;;;;;;;;;;;;9.82;100.00;99877.75;5052286;28;20053;-51
2022/12/29 03:32:06;;;;;;;1.55;1.30;;;;;;;9.77;100.00;99878.13;5045936;28;19916;-50
2022/12/29 03:34:33;;;;;;;4.35;1.23;;;;;;;9.76;100.00;99873.84;5051476;28;20063;-52
2022/12/29 03:37:14;;;;;;;2.20;1.00;;;;;;;9.75;100.00;99869.50;5052301;28;20537;-50
2022/12/29 03:39:41;;;;;;;1.08;0.93;;;;;;;9.71;100.00;99902.56;5051832;28;20033;-49
2022/12/29 03:42:13;;;;;;;3.67;1.23;;;;;;;9.69;100.00;99896.56;5051751;28;20151;-49
2022/12/29 03:44:42;;;;;;;3.22;1.10;;;;;;;9.67;100.00;99890.53;5051812;28;20072;-49
2022/12/29 03:47:10;;;;;;;3.63;1.20;;;;;;;9.64;100.00;99885.50;5051922;28;20033;-50
2022/12/29 03:49:36;;;;;;;5.80;1.30;;;;;;;9.59;100.00;99877.97;5051461;28;20028;-50
2022/12/29 03:52:01;;;;;;;2.70;1.05;;;;;;;9.57;100.00;99892.31;5051231;28;20033;-49
2022/12/29 03:54:26;;;;;;;4.40;1.50;;;;;;;9.54;100.00;99882.00;5050997;28;20025;-50
2022/12/29 03:56:52;;;;;;;3.25;1.08;;;;;;;9.52;100.00;99886.59;5052216;28;20482;-50
2022/12/29 03:59:17;;;;;;;4.03;1.40;;;;;;;9.50;100.00;99889.38;5051663;28;20025;-50
2022/12/29 04:01:42;;;;;;;3.13;1.17;;;;;;;9.48;100.00;99898.44;5051925;28;20502;-49
2022/12/29 04:04:08;;;;;;;4.20;1.30;;;;;;;9.45;100.00;99903.03;5050793;28;20025;-50
2022/12/29 04:06:33;;;;;;;4.05;1.70;;;;;;;9.45;100.00;99896.88;5051941;28;20470;-51
2022/12/29 04:08:58;;;;;;;2.55;1.10;;;;;;;9.41;100.00;99874.28;5050732;28;20025;-51
2022/12/29 04:11:24;;;;;;;4.68;1.45;;;;;;;9.37;100.00;99899.38;5051569;28;20462;-50
2022/12/29 04:13:49;;;;;;;4.57;1.45;;;;;;;9.33;100.00;99896.16;5051477;28;20028;-49
2022/12/29 04:16:15;;;;;;;4.20;1.60;;;;;;;9.28;100.00;99911.63;5051129;28;20052;-49
2022/12/29 04:18:40;;;;;;;3.92;1.50;;;;;;;9.24;100.00;99915.47;5051115;28;20060;-49
2022/12/29 04:21:06;;;;;;;11.13;1.67;;;;;;;9.20;100.00;99924.69;5051759;28;20116;-49
2022/12/29 04:23:34;;;;;;;5.35;1.40;;;;;;;9.14;100.00;99918.06;5050730;28;20111;-49
2022/12/29 04:26:00;;;;;;;4.22;1.65;;;;;;;9.11;100.00;99918.34;5051399;28;20025;-51
2022/12/29 04:28:25;;;;;;;4.63;1.30;;;;;;;9.10;100.00;99929.09;5050893;28;20463;-49
2022/12/29 04:30:51;;;;;;;3.97;1.30;;;;;;;9.04;100.00;99933.06;5050230;28;20017;-52
2022/12/29 04:33:16;;;;;;;7.70;1.52;;;;;;;9.02;100.00;99919.97;5037327;28;20463;-51
2022/12/29 04:35:42;;;;;;;7.70;1.77;;;;;;;9.02;100.00;99912.00;5051055;28;20399;-49
2022/12/29 04:38:08;;;;;;;6.72;1.35;;;;;;;8.99;100.00;99928.19;5049913;28;20025;-49
2022/12/29 04:40:33;;;;;;;7.93;1.40;;;;;;;8.98;100.00;99930.97;5050878;28;20283;-50
2022/12/29 04:42:58;;;;;;;3.45;1.30;;;;;;;8.97;100.00;99940.69;5051261;28;20050;-50
2022/12/29 04:45:24;;;;;;;5.43;1.63;;;;;;;8.92;100.00;99934.94;5051242;28;20048;-50
2022/12/29 04:47:49;;;;;;;5.85;1.77;;;;;;;8.91;100.00;99945.69;5051109;28;20036;-50
2022/12/29 04:50:14;;;;;;;4.55;1.42;;;;;;;8.88;100.00;99946.78;5050687;28;20025;-49
2022/12/29 04:52:40;;;;;;;5.60;1.70;;;;;;;8.87;100.00;99956.53;5050627;28;20059;-49
2022/12/29 04:55:06;;;;;;;6.43;1.55;;;;;;;8.83;100.00;99949.81;5051522;28;20025;-49
2022/12/29 04:57:31;;;;;;;8.50;1.63;;;;;;;8.84;100.00;99956.81;5050824;28;20052;-50
2022/12/29 04:59:57;;;;;;;5.63;1.50;;;;;;;8.81;100.00;99965.00;5050132;28;20510;-50
2022/12/29 05:02:22;;;;;;;9.38;1.60;;;;;;;8.84;100.00;99958.59;5050778;28;20033;-49
2022/12/29 05:04:47;;;;;;;6.28;1.50;;;;;;;8.80;100.00;99963.31;5050981;28;20045;-49
2022/12/29 05:07:13;;;;;;;4.72;1.98;;;;;;;8.79;100.00;99966.94;5050112;28;20048;-51
2022/12/29 05:09:39;;;;;;;6.18;1.60;;;;;;;8.78;100.00;99973.19;5054645;28;20043;-49
2022/12/29 05:12:05;;;;;;;9.68;1.92;;;;;;;8.80;100.00;99975.72;5054779;28;20078;-49
2022/12/29 05:14:30;;;;;;;6.68;1.75;;;;;;;8.78;100.00;99982.94;5053811;28;20538;-49
2022/12/29 05:16:55;;;;;;;5.47;1.55;;;;;;;8.76;100.00;99980.44;5053158;28;20395;-49
2022/12/29 05:19:20;;;;;;;5.75;1.55;;;;;;;8.76;100.00;99992.81;5054732;28;20028;-50
2022/12/29 05:21:46;;;;;;;6.75;1.40;;;;;;;8.74;100.00;100000.03;5053836;28;20021;-49
2022/12/29 05:24:11;;;;;;;6.13;1.48;;;;;;;8.74;100.00;99992.09;5054402;28;20025;-49
2022/12/29 05:26:37;;;;;;;5.88;2.13;;;;;;;8.74;100.00;99989.44;5051278;28;20167;-50
2022/12/29 05:29:02;;;;;;;9.93;1.95;;;;;;;8.73;100.00;99995.69;5054622;28;20025;-50
2022/12/29 05:31:27;;;;;;;6.70;1.75;;;;;;;8.72;100.00;99994.88;5051328;28;20029;-50
2022/12/29 05:33:53;;;;;;;7.18;1.73;;;;;;;8.74;100.00;99994.75;5043804;28;20025;-49
2022/12/29 05:36:18;;;;;;;4.07;1.40;;;;;;;8.74;100.00;99997.41;5053282;28;20029;-49
2022/12/29 05:38:44;;;;;;;7.57;1.73;;;;;;;8.75;100.00;99993.78;5053401;28;20028;-49
2022/12/29 05:41:09;;;;;;;6.55;1.52;;;;;;;8.79;100.00;100000.50;5053568;28;20040;-50
2022/12/29 05:43:34;;;;;;;7.03;1.98;;;;;;;8.79;100.00;100003.16;5054305;28;20028;-49
2022/12/29 05:46:00;;;;;;;6.40;1.50;;;;;;;8.80;100.00;100003.03;5054099;28;20029;-50
2022/12/29 05:48:25;;;;;;;6.75;1.63;;;;;;;8.83;100.00;100025.78;5048073;28;20035;-50
2022/12/29 05:50:51;;;;;;;8.52;1.92;;;;;;;8.85;100.00;100023.84;5053354;28;20552;-49
2022/12/29 05:53:17;;;;;;;5.10;1.52;;;;;;;8.85;100.00;100027.31;5053862;28;20075;-49
2022/12/29 05:55:43;;;;;;;5.35;1.67;;;;;;;8.83;100.00;100037.19;5053062;28;20064;-50
2022/12/29 05:58:09;;;;;;;5.68;1.70;;;;;;;8.88;99.35;100020.94;5043161;28;20131;-49
2022/12/29 06:00:34;;;;;;;6.53;2.00;;;;;;;8.92;98.41;100034.75;5053690;28;20033;-50
2022/12/29 06:02:59;;;;;;;4.32;1.55;;;;;;;8.94;98.55;100032.81;5053256;28;20040;-49
2022/12/29 06:05:24;;;;;;;4.18;1.40;;;;;;;8.96;98.75;100030.88;5054066;28;20025;-49
2022/12/29 06:07:50;;;;;;;4.30;1.58;;;;;;;8.97;99.09;100021.97;5053681;28;20150;-50
2022/12/29 06:10:15;;;;;;;6.35;1.38;;;;;;;8.95;99.65;100030.03;5053777;28;20025;-49
2022/12/29 06:12:40;;;;;;;3.80;1.52;;;;;;;8.95;99.06;100021.28;5052961;28;20112;-50
2022/12/29 06:15:06;;;;;;;7.10;2.10;;;;;;;8.97;98.90;100044.00;5053527;28;20029;-49
2022/12/29 06:17:32;;;;;;;6.13;1.98;;;;;;;9.01;97.73;100033.97;5046836;28;20055;-50
2022/12/29 06:19:58;;;;;;;5.93;1.40;;;;;;;9.00;97.99;100032.31;5047240;28;20485;-51
2022/12/29 06:22:23;;;;;;;8.60;1.70;;;;;;;9.02;96.72;100033.03;5052528;28;20043;-49
2022/12/29 06:24:48;;;;;;;4.85;1.40;;;;;;;9.02;97.19;100019.78;5052467;28;20037;-50
2022/12/29 06:27:14;;;;;;;4.82;1.40;;;;;;;9.01;97.35;100013.66;5050215;28;20032;-49
2022/12/29 06:29:40;;;;;;;6.68;2.00;;;;;;;9.01;96.83;100008.34;5052666;28;20037;-50
2022/12/29 06:32:06;;;;;;;7.13;1.75;;;;;;;9.00;96.71;100022.56;5045504;28;20068;-49
2022/12/29 06:34:31;;;;;;;6.90;1.70;;;;;;;9.02;96.25;100017.97;5046710;28;20517;-50
2022/12/29 06:36:57;;;;;;;4.97;1.60;;;;;;;9.03;95.59;100003.75;5052862;28;20090;-50
2022/12/29 06:39:22;;;;;;;8.65;1.80;;;;;;;9.02;95.29;100004.72;5053000;28;20060;-49
2022/12/29 06:41:47;;;;;;;4.07;1.63;;;;;;;8.98;96.02;100021.84;5052357;28;20460;-49
2022/12/29 06:44:13;;;;;;;7.30;2.10;;;;;;;9.00;95.75;100017.25;5052696;28;20025;-52
2022/12/29 06:46:38;;;;;;;7.90;1.88;;;;;;;9.01;95.78;100018.09;5053074;28;20414;-49
2022/12/29 06:49:03;;;;;;;7.53;1.77;;;;;;;9.00;96.08;100019.91;5052447;28;20029;-49
2022/12/29 06:51:28;;;;;;;8.13;1.73;;;;;;;8.99;96.32;100010.31;5053527;28;20441;-50
2022/12/29 06:53:54;;;;;;;7.25;2.15;;;;;;;9.00;95.79;100009.31;5051846;28;20485;-50
2022/12/29 06:56:19;;;;;;;8.43;2.45;;;;;;;9.03;95.60;100024.13;5059061;28;20024;-49
2022/12/29 06:58:44;;;;;;;5.75;1.70;;;;;;;9.01;94.89;100020.75;5057553;28;20040;-51
2022/12/29 07:01:09;;;;;;;7.45;2.10;;;;;;;8.99;95.32;100023.53;5051916;28;20032;-50
2022/12/29 07:03:35;;;;;;;8.48;2.15;;;;;;;9.02;94.58;100039.16;5052550;28;20025;-50
2022/12/29 07:06:00;;;;;;;5.88;1.70;;;;;;;9.04;94.66;100026.66;5052400;28;20486;-53
2022/12/29 07:08:25;;;;;;;6.65;1.77;;;;;;;9.05;94.16;100033.59;5050569;28;21249;-52
2022/12/29 07:10:51;;;;;;;9.80;2.35;;;;;;;9.09;92.89;100042.13;5050628;28;20029;-52
2022/12/29 07:13:16;;;;;;;7.65;1.90;;;;;;;9.12;92.98;100041.88;5053615;28;20079;-49
2022/12/29 07:15:41;;;;;;;7.15;2.17;;;;;;;9.14;92.59;100049.69;5052363;28;20063;-49
2022/12/29 07:18:07;;;;;;;6.15;1.85;;;;;;;9.11;92.61;100057.91;5052682;28;20025;-49
2022/12/29 07:20:32;;;;;;;10.60;2.15;;;;;;;9.12;91.71;100060.44;5051611;28;20025;-50
2022/12/29 07:22:58;;;;;;;9.10;2.33;;;;;;;9.14;91.40;100061.13;5044601;28;20483;-50
2022/12/29 07:25:23;;;;;;;7.22;1.90;;;;;;;9.15;90.59;100064.63;5034228;28;20088;-49
2022/12/29 07:27:49;;;;;;;9.25;2.33;;;;;;;9.14;90.37;100074.38;5037941;28;20029;-49
2022/12/29 07:30:14;;;;;;;6.35;2.00;;;;;;;9.16;89.83;100074.25;5042688;28;20577;-49
2022/12/29 07:32:40;;;;;;;9.82;2.28;;;;;;;9.13;89.96;100079.84;5044452;28;20059;-50
2022/12/29 07:35:06;;;;;;;9.25;2.05;;;;;;;9.08;89.64;100077.56;5048198;28;20083;-49
2022/12/29 07:37:31;;;;;;;9.80;2.25;;;;;;;9.07;89.52;100073.22;5048558;28;20037;-49
2022/12/29 07:39:57;;;;;;;10.52;2.50;;;;;;;9.03;89.99;100077.94;5049432;28;20372;-50
2022/12/29 07:42:22;;;;;;;11.55;2.28;;;;;;;9.00;90.02;100086.13;5047372;28;20037;-49
2022/12/29 07:44:47;;;;;;;10.73;2.53;;;;;;;9.00;89.69;100086.13;5045103;28;20029;-51
2022/12/29 07:47:13;;;;;;;11.00;2.55;;;;;;;9.00;89.33;100086.13;5045712;28;20031;-51
2022/12/29 07:49:38;;;;;;;13.50;2.35;;;;;;;8.99;90.23;100087.09;5043978;28;20029;-49
2022/12/29 07:52:03;;;;;;;9.52;2.58;;;;;;;9.00;89.77;100082.66;5046941;28;20387;-50
2022/12/29 07:54:29;;;;;;;11.07;2.30;;;;;;;9.01;89.81;100084.31;5047006;28;20044;-49
2022/12/29 07:56:54;;;;;;;13.38;2.78;;;;;;;8.98;89.84;100084.59;5044859;28;20047;-48
2022/12/29 07:59:19;;;;;;;11.68;2.67;;;;;;;8.98;90.12;100082.75;5042791;28;20091;-50
2022/12/29 08:01:45;;;;;;;13.98;3.03;;;;;;;8.97;90.08;100099.63;5046657;28;20060;-49
2022/12/29 08:04:10;;;;;;;15.50;2.70;;;;;;;8.98;89.65;100085.41;5046660;28;20052;-51
2022/12/29 08:06:37;;;;;;;12.93;2.47;;;;;;;8.97;90.21;100102.25;5042435;28;20082;-49
2022/12/29 08:09:02;;;;;;;11.45;2.33;;;;;;;9.00;89.41;100094.06;5042089;28;20052;-49
2022/12/29 08:11:28;;;;;;;8.73;2.30;;;;;;;8.99;90.25;100104.78;5045771;28;20025;-49
2022/12/29 08:13:53;;;;;;;14.25;2.58;;;;;;;8.99;88.71;100087.09;5042153;28;20040;-51
2022/12/29 08:16:18;;;;;;;11.55;2.53;;;;;;;9.03;88.60;100107.06;5046450;28;20667;-49
2022/12/29 08:18:44;;;;;;;12.13;2.70;;;;;;;9.04;87.89;100098.16;5042627;28;20034;-49
2022/12/29 08:21:09;;;;;;;11.90;2.28;;;;;;;9.05;88.22;100099.81;5037179;28;20102;-52
2022/12/29 08:23:34;;;;;;;9.70;2.45;;;;;;;9.08;86.92;100098.75;5042975;28;20388;-50
2022/12/29 08:26:02;;;;;;;10.65;2.10;;;;;;;9.10;86.38;100098.63;5041744;28;20114;-49
2022/12/29 08:28:28;;;;;;;8.05;2.55;;;;;;;9.07;86.25;100100.53;5038261;28;20033;-50
2022/12/29 08:30:53;;;;;;;9.98;2.22;;;;;;;9.08;86.76;100096.09;5039343;28;20041;-50
2022/12/29 08:33:18;;;;;;;10.13;2.25;;;;;;;9.10;86.72;100099.47;5046261;28;20036;-47
2022/12/29 08:35:44;;;;;;;8.98;2.42;;;;;;;9.14;85.83;100115.94;5045113;28;20054;-49
2022/12/29 08:38:11;;;;;;;11.65;2.70;;;;;;;9.15;85.81;100107.03;5045396;28;20490;-49
2022/12/29 08:40:36;;;;;;;7.55;2.25;;;;;;;9.16;86.16;100093.66;5047601;28;20049;-50
2022/12/29 08:43:01;;;;;;;10.70;2.70;;;;;;;9.17;85.79;100100.63;5049213;28;20336;-50
2022/12/29 08:45:27;;;;;;;11.77;2.08;;;;;;;9.17;85.96;100099.78;5046973;28;20037;-49
2022/12/29 08:47:52;;;;;;;10.10;2.92;;;;;;;9.19;85.28;100104.00;5046314;28;20029;-49
2022/12/29 08:50:17;;;;;;;10.80;2.47;;;;;;;9.21;85.56;100101.22;5053186;28;20037;-51
2022/12/29 08:52:43;;;;;;;11.55;2.63;;;;;;;9.23;86.01;100105.44;5051523;28;20083;-49
2022/12/29 08:55:08;;;;;;;10.27;2.40;;;;;;;9.23;85.53;100107.25;5053439;28;20025;-50
2022/12/29 08:57:33;;;;;;;8.63;2.10;;;;;;;9.25;85.22;100114.06;5054233;28;20041;-49
2022/12/29 08:59:59;;;;;;;8.68;2.55;;;;;;;9.28;84.65;100098.91;5054555;28;20029;-50
2022/12/29 09:02:24;;;;;;;10.57;2.45;;;;;;;9.28;85.13;100113.00;5055120;28;20035;-53
2022/12/29 09:04:49;;;;;;;11.57;2.60;;;;;;;9.30;85.26;100118.16;5054883;28;20020;-51
2022/12/29 09:07:15;;;;;;;18.02;2.78;;;;;;;9.29;85.31;100109.34;5054597;28;20027;-49
2022/12/29 09:09:40;;;;;;;11.02;2.72;;;;;;;9.31;84.61;100122.47;5055188;28;20028;-52
2022/12/29 09:12:05;;;;;;;11.13;2.50;;;;;;;9.35;84.69;100130.06;5050061;28;20025;-51
2022/12/29 09:14:31;;;;;;;9.75;2.20;;;;;;;9.35;86.46;100139.81;5048465;28;20040;-52
2022/12/29 09:19:40;;;;;;;9.40;2.70;;;;;;;9.30;86.66;100136.72;5037157;28;20092;-49
2022/12/29 09:22:05;;;;;;;12.88;2.92;;;;;;;9.29;87.49;100135.84;5044551;28;20021;-52
2022/12/29 09:24:31;;;;;;;9.85;2.40;;;;;;;9.24;89.28;100146.00;5054618;28;20025;-50
2022/12/29 09:26:56;;;;;;;11.77;2.83;;;;;;;9.21;88.26;100156.88;5052172;28;20086;-52
2022/12/29 09:29:21;;;;;;;11.57;2.20;;;;;;;9.17;88.68;100147.47;5050149;28;20033;-49
2022/12/29 09:31:47;;;;;;;11.43;2.33;;;;;;;9.13;90.07;100161.97;5048413;28;20045;-50
2022/12/29 09:34:12;;;;;;;10.88;2.28;;;;;;;9.10;90.21;100160.38;5049579;28;20021;-52
2022/12/29 09:36:37;;;;;;;10.77;2.15;;;;;;;9.05;91.06;100162.56;5052118;28;20028;-52
2022/12/29 09:39:03;;;;;;;10.23;1.95;;;;;;;9.04;90.89;100159.09;5047407;28;20399;-50
2022/12/29 09:42:01;;;;;;;8.63;2.50;;;;;;;9.03;91.91;100173.28;5046820;28;20021;-50
2022/12/29 09:44:57;;;;;;;11.65;2.30;;;;;;;9.03;91.75;100160.03;5040267;28;20017;-50
2022/12/29 09:47:24;;;;;;;7.90;2.40;;;;;;;9.03;92.18;100161.88;5042567;28;20032;-50
2022/12/29 09:49:54;;;;;;;14.48;2.45;;;;;;;9.00;93.04;100176.19;5047382;28;20024;-51
2022/12/29 09:52:25;;;;;;;14.25;3.05;;;;;;;9.00;92.23;100184.13;5045601;28;20033;-51
2022/12/29 09:55:02;;;;;;;9.63;2.53;;;;;;;8.99;93.34;100189.53;5044412;28;20083;-54
2022/12/29 09:57:39;;;;;;;10.57;2.65;;;;;;;8.95;93.90;100207.50;5028191;28;20021;-50
2022/12/29 10:00:14;;;;;;;13.43;3.67;;;;;;;8.95;94.10;100177.53;5052363;28;20032;-50
2022/12/29 10:02:50;;;;;;;10.55;2.38;;;;;;;8.96;93.95;100209.19;5052836;28;20025;-51
2022/12/29 10:05:30;;;;;;;9.75;2.40;;;;;;;8.88;94.72;100207.16;5051517;28;20032;-50
2022/12/29 10:08:14;;;;;;;11.32;2.63;;;;;;;8.88;95.54;100220.38;5052001;28;20032;-50
2022/12/29 10:11:01;;;;;;;12.90;2.47;;;;;;;8.82;96.83;100238.56;5052262;28;20104;-52
2022/12/29 10:13:58;;;;;;;8.73;2.55;;;;;;;8.75;97.97;100222.31;5047012;28;20029;-50
2022/12/29 10:16:36;;;;;;;8.02;2.50;;;;;;;8.67;98.25;100244.09;5052679;28;20068;-50
2022/12/29 10:19:04;;;;;;;8.47;2.60;;;;;;;8.64;99.12;100262.91;5053037;28;20201;-50
2022/12/29 10:22:17;;;;;;;7.88;2.20;;;;;;;8.61;100.00;100260.47;5051207;28;20804;-52
2022/12/29 10:24:47;;;;;;;12.07;2.42;;;;;;;8.57;100.00;100258.19;5048652;28;20100;-50
2022/12/29 10:27:13;;;;;;;;;;;;;;;8.63;99.71;100261.19;5050361;28;20032;-50
2022/12/29 10:29:50;;;;;;;10.98;2.60;;;;;;;8.55;100.00;100253.00;5049261;28;19905;-49
2022/12/29 10:32:18;;;;;;;9.13;2.30;;;;;;;8.53;100.00;100270.81;5044648;28;20064;-51
2022/12/29 10:34:51;;;;;;;12.88;2.85;;;;;;;8.51;100.00;100264.81;5048744;28;20467;-50
2022/12/29 10:37:54;;;;;;;11.23;2.72;;;;;;;8.50;100.00;100276.34;5052522;28;20037;-49
2022/12/29 10:40:32;;;;;;;9.88;2.85;;;;;;;8.47;100.00;100269.47;5052618;28;20060;-52
2022/12/29 10:42:58;;;;;;;11.40;2.58;;;;;;;8.45;100.00;100297.03;5051366;28;20029;-50
2022/12/29 10:45:30;;;;;;;12.95;3.15;;;;;;;8.44;100.00;100288.25;5052690;28;20039;-51
2022/12/29 10:48:03;;;;;;;13.73;2.97;;;;;;;8.45;100.00;100294.38;5052775;28;20033;-50
2022/12/29 10:50:29;;;;;;;12.82;2.50;;;;;;;8.46;100.00;100302.19;5044975;28;20471;-50
2022/12/29 10:52:58;;;;;;;11.65;2.38;;;;;;;8.46;100.00;100301.34;5051929;28;20363;-53
2022/12/29 10:55:32;;;;;;;13.25;2.63;;;;;;;8.47;100.00;100316.28;5051725;28;20382;-51
2022/12/29 10:58:04;;;;;;;10.23;2.38;;;;;;;8.47;100.00;100306.53;5042662;28;20051;-51
2022/12/29 11:00:30;;;;;;;13.10;3.10;;;;;;;8.48;100.00;100304.72;5052464;28;20542;-50
2022/12/29 11:03:28;;;;;;;10.95;2.38;;;;;;;8.46;100.00;100317.22;5050850;28;20040;-51
2022/12/29 11:06:05;;;;;;;13.35;2.67;;;;;;;8.44;100.00;100313.84;5052033;28;20045;-50
2022/12/29 11:08:35;;;;;;;7.15;2.22;;;;;;;8.38;100.00;100317.78;5035570;28;20025;-50
2022/12/29 11:11:07;;;;;;;13.73;2.65;;;;;;;8.35;100.00;100325.97;5043032;28;20052;-50
2022/12/29 11:13:35;;;;;;;13.32;2.60;;;;;;;8.34;100.00;100316.31;5047851;28;20438;-51
2022/12/29 11:16:02;;;;;;;11.07;2.73;;;;;;;8.32;100.00;100329.66;5041038;28;20510;-52
2022/12/29 11:18:37;;;;;;;14.65;3.20;;;;;;;8.31;100.00;100327.13;5048921;28;20050;-49
2022/12/29 11:21:06;;;;;;;13.93;2.90;;;;;;;8.33;100.00;100328.72;5045390;28;20025;-52
2022/12/29 11:23:35;;;;;;;13.77;2.80;;;;;;;8.36;100.00;100322.38;5036973;28;20036;-50
2022/12/29 11:26:09;;;;;;;15.13;2.75;;;;;;;8.39;100.00;100331.84;5048664;28;20466;-53
2022/12/29 11:28:35;;;;;;;14.65;2.95;;;;;;;8.41;100.00;100328.16;5044145;28;20395;-52
2022/12/29 11:31:03;;;;;;;11.27;2.53;;;;;;;8.45;100.00;100337.56;5050433;28;20087;-53
2022/12/29 11:33:30;;;;;;;16.10;3.00;;;;;;;8.49;100.00;100338.16;5046756;28;20044;-49
2022/12/29 11:36:06;;;;;;;6.47;2.85;;;;;;;8.54;100.00;100348.41;5050269;28;20030;-50
2022/12/29 11:38:38;;;;;;;15.32;3.10;;;;;;;8.56;100.00;100349.13;5047046;28;20045;-50
2022/12/29 11:41:06;;;;;;;11.15;3.28;;;;;;;8.58;100.00;100353.34;5048645;28;20025;-54
2022/12/29 11:43:42;;;;;;;11.93;2.92;;;;;;;8.61;100.00;100349.63;5042450;28;20110;-50
2022/12/29 11:46:16;;;;;;;15.73;3.13;;;;;;;8.63;100.00;100347.72;5047243;28;20498;-51
2022/12/29 11:48:42;;;;;;;10.10;2.55;;;;;;;8.61;100.00;100355.78;5047877;28;20041;-49
2022/12/29 11:51:11;;;;;;;9.82;2.95;;;;;;;8.61;100.00;100353.13;5047262;28;20087;-50
2022/12/29 11:53:49;;;;;;;13.27;3.38;;;;;;;8.64;100.00;100359.97;5046697;28;20447;-52
2022/12/29 11:56:19;;;;;;;16.87;2.87;;;;;;;8.65;100.00;100367.81;5046143;28;20029;-50
2022/12/29 11:58:47;;;;;;;16.02;3.00;;;;;;;8.66;100.00;100366.84;5046397;28;20029;-49
2022/12/29 12:01:23;;;;;;;15.65;3.33;;;;;;;8.70;100.00;100356.88;5042754;28;20072;-49
2022/12/29 12:04:00;;;;;;;14.57;2.90;;;;;;;8.72;99.94;100360.25;5045677;28;20041;-52
2022/12/29 12:06:27;;;;;;;14.57;3.05;;;;;;;8.73;99.13;100367.22;5036241;28;20025;-50
2022/12/29 12:09:02;;;;;;;13.68;3.00;;;;;;;8.76;98.97;100353.75;5041565;28;20044;-51
2022/12/29 12:11:37;;;;;;;13.20;2.90;;;;;;;8.80;98.61;100359.66;5037909;28;20471;-49
2022/12/29 12:14:15;;;;;;;17.95;3.35;;;;;;;8.84;97.88;100363.75;5047521;28;20041;-52
2022/12/29 12:16:45;;;;;;;15.93;3.33;;;;;;;8.85;97.64;100360.97;5048788;28;20048;-49
2022/12/29 12:19:25;;;;;;;13.00;3.40;;;;;;;8.88;97.23;100374.00;5049549;28;20064;-50